Time;durP1;ratioP1;P1;durP2;ratioP2;P2;SDS_P1;SDS_P2;PMS_P1;PMS_P2;Temp;Humidity;BMP_temperature;BMP_pressure;BME280_temperature;BME280_humidity;BME280_pressure;Samples;Min_cycle;Max_cycle;Signal;HPM_P1;HPM_P2
2021/08/18 00:01:25;;;;;;;25.08;9.48;;;14.30;99.90;;;;;;5010842;28;20021;-82
2021/08/18 00:03:51;;;;;;;24.88;8.75;;;14.30;99.90;;;;;;5010855;28;20211;-82
2021/08/18 00:06:16;;;;;;;23.60;8.88;;;14.40;99.90;;;;;;5005893;28;20026;-83
2021/08/18 00:08:44;;;;;;;28.00;9.68;;;14.30;99.90;;;;;;5006978;28;20033;-83
2021/08/18 00:11:10;;;;;;;28.42;10.73;;;14.30;99.90;;;;;;5007163;28;20489;-82
2021/08/18 00:13:36;;;;;;;27.83;11.15;;;14.40;99.90;;;;;;4993385;28;20056;-83
2021/08/18 00:16:02;;;;;;;29.25;10.40;;;14.30;99.90;;;;;;5006943;28;20029;-82
2021/08/18 00:18:28;;;;;;;30.23;11.27;;;14.30;99.90;;;;;;5009903;28;20493;-83
2021/08/18 00:20:54;;;;;;;33.13;12.07;;;14.30;99.90;;;;;;4987529;28;20053;-83
2021/08/18 00:23:20;;;;;;;31.20;11.65;;;14.30;99.90;;;;;;5005160;28;20026;-83
2021/08/18 00:25:45;;;;;;;32.47;12.38;;;14.30;99.90;;;;;;5005872;28;20030;-83
2021/08/18 00:28:11;;;;;;;31.58;11.32;;;14.30;99.90;;;;;;4993783;28;20033;-83
2021/08/18 00:30:37;;;;;;;35.65;14.00;;;14.30;99.90;;;;;;5006397;28;20080;-83
2021/08/18 00:33:03;;;;;;;36.42;12.40;;;14.40;99.90;;;;;;5004874;28;20041;-83
2021/08/18 00:35:29;;;;;;;36.22;13.15;;;14.40;99.90;;;;;;5007757;28;20069;-82
2021/08/18 00:37:55;;;;;;;41.80;14.70;;;14.40;99.90;;;;;;5005206;28;20037;-83
2021/08/18 00:40:21;;;;;;;36.80;12.98;;;14.40;99.90;;;;;;4988061;28;20482;-82
2021/08/18 00:42:48;;;;;;;37.85;13.60;;;14.40;99.90;;;;;;5005668;28;20313;-83
2021/08/18 00:45:15;;;;;;;45.95;15.85;;;14.40;99.90;;;;;;4986728;28;20017;-83
2021/08/18 00:47:53;;;;;;;43.47;15.00;;;14.40;99.90;;;;;;5003377;28;20057;-84
2021/08/18 00:50:24;;;;;;;32.63;11.95;;;14.40;99.90;;;;;;5006090;28;20028;-83
2021/08/18 00:52:51;;;;;;;39.55;12.10;;;14.40;99.90;;;;;;5006182;28;20041;-83
2021/08/18 00:55:20;;;;;;;35.67;12.88;;;14.40;99.90;;;;;;5005862;28;20470;-82
2021/08/18 00:57:46;;;;;;;43.40;15.70;;;14.40;99.90;;;;;;5003528;28;20056;-83
2021/08/18 01:00:14;;;;;;;37.85;13.90;;;14.40;99.90;;;;;;4997277;28;20022;-84
2021/08/18 01:02:43;;;;;;;32.95;13.05;;;14.40;99.90;;;;;;5005705;28;20041;-83
2021/08/18 01:05:12;;;;;;;38.67;13.07;;;14.50;99.90;;;;;;4997772;28;20021;-83
2021/08/18 01:07:39;;;;;;;39.35;14.23;;;14.40;99.90;;;;;;5001563;28;20080;-84
2021/08/18 01:10:09;;;;;;;36.05;13.02;;;14.40;99.90;;;;;;5003743;28;20026;-85
2021/08/18 01:12:38;;;;;;;32.83;12.85;;;14.50;99.90;;;;;;4990954;28;20426;-83
2021/08/18 01:15:13;;;;;;;30.60;11.27;;;14.40;99.90;;;;;;4986719;28;20025;-84
2021/08/18 01:17:51;;;;;;;34.90;13.05;;;14.40;99.90;;;;;;5006053;28;20042;-83
2021/08/18 01:20:30;;;;;;;21.65;9.30;;;14.40;99.90;;;;;;5003167;28;20038;-84
2021/08/18 01:23:07;;;;;;;32.35;11.15;;;14.50;99.90;;;;;;5004814;28;20057;-83
2021/08/18 01:25:35;;;;;;;34.55;13.50;;;14.40;99.90;;;;;;5004820;28;20022;-84
2021/08/18 01:28:03;;;;;;;35.63;12.55;;;14.40;99.90;;;;;;5004837;28;20061;-82
2021/08/18 01:30:31;;;;;;;37.28;12.82;;;14.50;99.90;;;;;;5008640;28;20138;-82
2021/08/18 01:33:01;;;;;;;34.78;12.90;;;14.50;99.90;;;;;;5008361;28;20022;-82
2021/08/18 01:35:30;;;;;;;33.03;12.68;;;14.50;99.90;;;;;;5008945;28;20533;-83
2021/08/18 01:37:56;;;;;;;31.95;12.45;;;14.50;99.90;;;;;;5008250;28;20514;-82
2021/08/18 01:40:22;;;;;;;34.42;12.63;;;14.40;99.90;;;;;;5008785;28;20429;-83
2021/08/18 01:42:49;;;;;;;35.05;12.98;;;14.50;99.90;;;;;;5008805;28;20041;-83
2021/08/18 01:45:23;;;;;;;32.33;11.18;;;14.50;99.90;;;;;;5007891;28;20032;-83
2021/08/18 01:47:50;;;;;;;34.28;13.20;;;14.50;99.90;;;;;;5007003;28;20022;-83
2021/08/18 01:50:17;;;;;;;26.80;8.07;;;14.50;99.90;;;;;;5008675;28;20121;-83
2021/08/18 01:52:43;;;;;;;31.55;11.20;;;14.50;99.90;;;;;;5007624;28;20034;-83
2021/08/18 01:55:10;;;;;;;33.30;11.65;;;14.50;99.90;;;;;;5000637;28;20370;-82
2021/08/18 01:57:37;;;;;;;31.98;11.65;;;14.50;99.90;;;;;;5006241;28;20034;-82
2021/08/18 02:00:05;;;;;;;30.70;11.93;;;14.50;99.90;;;;;;5004536;28;20030;-82
2021/08/18 02:02:31;;;;;;;35.70;12.95;;;14.50;99.90;;;;;;5009783;28;20037;-82
2021/08/18 02:04:57;;;;;;;37.33;14.30;;;14.50;99.90;;;;;;4988766;28;20432;-81
2021/08/18 02:07:24;;;;;;;31.95;11.63;;;14.50;99.90;;;;;;5007589;28;20117;-83
2021/08/18 02:09:50;;;;;;;33.72;13.35;;;14.50;99.90;;;;;;4992124;28;20021;-81
2021/08/18 02:12:16;;;;;;;34.08;12.95;;;14.50;99.90;;;;;;5008064;28;20504;-81
2021/08/18 02:14:41;;;;;;;36.63;12.52;;;14.50;99.90;;;;;;4981993;28;20109;-81
2021/08/18 02:17:07;;;;;;;31.98;12.88;;;14.50;99.90;;;;;;5006139;28;20034;-81
2021/08/18 02:19:33;;;;;;;35.00;12.82;;;14.50;99.90;;;;;;5005897;28;20180;-80
2021/08/18 02:21:59;;;;;;;38.00;13.65;;;14.50;99.90;;;;;;5007709;28;20458;-80
2021/08/18 02:24:24;;;;;;;36.17;14.55;;;14.50;99.90;;;;;;5007296;28;20038;-80
2021/08/18 02:26:50;;;;;;;36.42;13.68;;;14.50;99.90;;;;;;4985326;28;20115;-80
2021/08/18 02:29:15;;;;;;;39.22;14.55;;;14.40;99.90;;;;;;5007226;28;20033;-80
2021/08/18 02:31:41;;;;;;;37.47;14.68;;;14.50;99.90;;;;;;4992055;28;20029;-80
2021/08/18 02:34:09;;;;;;;36.95;12.88;;;14.50;99.90;;;;;;5007172;28;20034;-80
2021/08/18 02:36:35;;;;;;;38.58;14.30;;;14.50;99.90;;;;;;5006564;28;20481;-79
2021/08/18 02:39:01;;;;;;;37.42;13.50;;;14.50;99.90;;;;;;4989355;28;20041;-79
2021/08/18 02:41:27;;;;;;;40.80;15.18;;;14.40;99.90;;;;;;5010458;28;20041;-80
2021/08/18 02:43:53;;;;;;;39.83;13.60;;;14.50;99.90;;;;;;5006074;28;20018;-80
2021/08/18 02:46:19;;;;;;;38.53;14.75;;;14.50;99.90;;;;;;5005950;28;20025;-80
2021/08/18 02:48:44;;;;;;;40.85;15.48;;;14.50;99.90;;;;;;4989373;28;20084;-79
2021/08/18 02:51:10;;;;;;;37.65;15.15;;;14.50;99.90;;;;;;5012720;28;20080;-80
2021/08/18 02:53:36;;;;;;;39.22;15.05;;;14.60;99.90;;;;;;5006764;28;20448;-82
2021/08/18 02:56:02;;;;;;;26.88;9.70;;;14.50;99.90;;;;;;5006822;28;20466;-82
2021/08/18 02:58:27;;;;;;;41.17;15.52;;;14.50;99.90;;;;;;5012477;28;20037;-81
2021/08/18 03:00:53;;;;;;;36.95;14.52;;;14.50;99.90;;;;;;5005906;28;20049;-83
2021/08/18 03:03:18;;;;;;;39.58;15.88;;;14.50;99.90;;;;;;5000721;28;20596;-84
2021/08/18 03:05:45;;;;;;;42.00;15.88;;;14.50;99.90;;;;;;5009200;28;20037;-83
2021/08/18 03:08:11;;;;;;;40.38;13.00;;;14.50;99.90;;;;;;5010923;28;20553;-83
2021/08/18 03:10:37;;;;;;;38.70;15.25;;;14.60;99.90;;;;;;5014192;28;20116;-84
2021/08/18 03:13:03;;;;;;;45.22;17.08;;;14.50;99.90;;;;;;5005933;28;20033;-84
2021/08/18 03:15:28;;;;;;;47.90;17.52;;;14.60;99.90;;;;;;5007329;28;20080;-85
2021/08/18 03:17:54;;;;;;;44.13;16.95;;;14.60;99.90;;;;;;5005597;28;20076;-84
2021/08/18 03:20:20;;;;;;;47.35;16.33;;;14.60;99.90;;;;;;5006629;28;20122;-84
2021/08/18 03:22:45;;;;;;;41.53;14.73;;;14.60;99.90;;;;;;4991070;28;20418;-82
2021/08/18 03:25:12;;;;;;;44.00;16.05;;;14.60;99.90;;;;;;5006870;28;20450;-84
2021/08/18 03:27:38;;;;;;;43.38;15.93;;;14.60;99.90;;;;;;5007586;28;20026;-84
2021/08/18 03:30:08;;;;;;;42.00;15.05;;;14.60;99.90;;;;;;5010247;28;20017;-84
2021/08/18 03:32:33;;;;;;;42.05;15.85;;;14.60;99.90;;;;;;5006307;28;20378;-85
2021/08/18 03:34:59;;;;;;;38.65;15.18;;;14.60;99.90;;;;;;4987915;28;20483;-83
2021/08/18 03:37:25;;;;;;;37.30;13.60;;;14.60;99.90;;;;;;5007293;28;20029;-83
2021/08/18 03:39:50;;;;;;;38.60;15.23;;;14.60;99.90;;;;;;5013815;28;20091;-84
2021/08/18 03:42:16;;;;;;;33.40;11.13;;;14.50;99.90;;;;;;5003457;28;20018;-83
2021/08/18 03:44:42;;;;;;;38.80;15.73;;;14.50;99.90;;;;;;5009480;28;20029;-83
2021/08/18 03:47:07;;;;;;;37.28;14.18;;;14.50;99.90;;;;;;5003246;28;20112;-82
2021/08/18 03:49:33;;;;;;;43.22;16.50;;;14.40;99.90;;;;;;4993334;28;20060;-82
2021/08/18 03:51:59;;;;;;;40.15;14.18;;;14.50;99.90;;;;;;5004089;28;20351;-81
2021/08/18 03:54:24;;;;;;;43.70;14.82;;;14.40;99.90;;;;;;5006319;28;20060;-82
2021/08/18 03:56:50;;;;;;;39.28;14.82;;;14.50;99.90;;;;;;5005275;28;20041;-82
2021/08/18 03:59:15;;;;;;;44.85;14.32;;;14.50;99.90;;;;;;4993736;28;20030;-81
2021/08/18 04:01:41;;;;;;;29.90;10.88;;;14.50;99.90;;;;;;5002419;28;20407;-81
2021/08/18 04:04:07;;;;;;;41.05;14.63;;;14.50;99.90;;;;;;5004884;28;20076;-82
2021/08/18 04:06:32;;;;;;;37.65;12.25;;;14.40;99.90;;;;;;5010080;28;20520;-82
2021/08/18 04:08:58;;;;;;;30.38;10.65;;;14.40;99.90;;;;;;5002791;28;20076;-82
2021/08/18 04:11:25;;;;;;;24.65;9.80;;;14.50;99.90;;;;;;5004539;28;20056;-82
2021/08/18 04:13:50;;;;;;;41.58;14.55;;;14.50;99.90;;;;;;5004832;28;20052;-82
2021/08/18 04:16:16;;;;;;;39.83;14.20;;;14.60;99.90;;;;;;5011158;28;20474;-81
2021/08/18 04:18:41;;;;;;;48.13;15.63;;;14.50;99.90;;;;;;4987197;28;20121;-81
2021/08/18 04:21:07;;;;;;;39.05;13.30;;;14.50;99.90;;;;;;5004534;28;20505;-81
2021/08/18 04:23:33;;;;;;;45.58;16.00;;;14.50;99.90;;;;;;5005863;28;20025;-81
2021/08/18 04:25:58;;;;;;;40.75;14.68;;;14.60;99.90;;;;;;5005099;28;20030;-82
2021/08/18 04:28:24;;;;;;;38.17;13.45;;;14.50;99.90;;;;;;4988819;28;20030;-81
2021/08/18 04:30:50;;;;;;;37.85;13.65;;;14.50;99.90;;;;;;4997810;28;20019;-79
2021/08/18 04:33:16;;;;;;;40.08;14.82;;;14.60;99.90;;;;;;5002774;28;20038;-81
2021/08/18 04:35:41;;;;;;;40.28;14.48;;;14.60;99.90;;;;;;5004930;28;20025;-81
2021/08/18 04:38:07;;;;;;;38.08;15.32;;;14.60;99.90;;;;;;5006598;28;20038;-81
2021/08/18 04:40:32;;;;;;;36.00;13.70;;;14.60;99.90;;;;;;5003116;28;20025;-79
2021/08/18 04:42:58;;;;;;;32.20;12.95;;;14.60;99.90;;;;;;5001610;28;20397;-81
2021/08/18 04:45:24;;;;;;;38.92;15.43;;;14.60;99.90;;;;;;5003897;28;20041;-82
2021/08/18 04:47:50;;;;;;;40.15;14.82;;;14.70;99.90;;;;;;4999573;28;20165;-79
2021/08/18 04:50:17;;;;;;;39.85;15.70;;;14.60;99.90;;;;;;5002866;28;20026;-79
2021/08/18 04:52:43;;;;;;;36.42;13.23;;;14.60;99.90;;;;;;5002962;28;20042;-78
2021/08/18 04:55:09;;;;;;;43.83;16.10;;;14.60;99.90;;;;;;5006445;28;20433;-77
2021/08/18 04:57:35;;;;;;;42.63;14.68;;;14.60;99.90;;;;;;5002265;28;20045;-79
2021/08/18 05:00:01;;;;;;;37.50;13.60;;;14.60;99.90;;;;;;4987707;28;20026;-83
2021/08/18 05:02:27;;;;;;;42.67;16.42;;;14.70;99.90;;;;;;5003657;28;20014;-79
2021/08/18 05:04:53;;;;;;;42.58;17.42;;;14.70;99.90;;;;;;5004091;28;20469;-79
2021/08/18 05:07:18;;;;;;;38.28;13.88;;;14.70;99.90;;;;;;4992814;28;20041;-81
2021/08/18 05:09:44;;;;;;;39.97;15.27;;;14.70;99.90;;;;;;5008667;28;20033;-83
2021/08/18 05:12:09;;;;;;;38.42;13.95;;;14.70;99.90;;;;;;5002686;28;20045;-77
2021/08/18 05:14:35;;;;;;;41.50;15.32;;;14.60;99.90;;;;;;4989348;28;20159;-79
2021/08/18 05:17:01;;;;;;;42.00;16.10;;;14.70;99.90;;;;;;4992570;28;20937;-82
2021/08/18 05:19:27;;;;;;;38.08;14.23;;;14.70;99.90;;;;;;4988766;28;20038;-81
2021/08/18 05:21:52;;;;;;;35.05;12.70;;;14.70;99.90;;;;;;4989419;28;20034;-70
2021/08/18 05:24:18;;;;;;;24.30;10.85;;;14.70;99.90;;;;;;5009381;28;20061;-69
2021/08/18 05:26:43;;;;;;;39.22;13.65;;;14.70;99.90;;;;;;4988102;28;20424;-68
2021/08/18 05:29:09;;;;;;;42.08;15.15;;;14.70;99.90;;;;;;5004181;28;20080;-70
2021/08/18 05:31:34;;;;;;;39.47;13.77;;;14.60;99.90;;;;;;5007658;28;20036;-70
2021/08/18 05:34:00;;;;;;;37.83;13.98;;;14.70;99.90;;;;;;5008151;28;20042;-69
2021/08/18 05:36:26;;;;;;;32.67;11.98;;;14.80;99.90;;;;;;5007287;28;20045;-69
2021/08/18 05:38:51;;;;;;;33.97;11.60;;;14.80;99.90;;;;;;5010742;28;20052;-69
2021/08/18 05:41:17;;;;;;;33.65;13.77;;;14.70;99.90;;;;;;4993228;28;20030;-70
2021/08/18 05:43:43;;;;;;;33.25;13.90;;;14.80;99.90;;;;;;5005102;28;20038;-69
2021/08/18 05:46:09;;;;;;;33.90;13.43;;;14.80;99.90;;;;;;5007221;28;20466;-70
2021/08/18 05:48:35;;;;;;;31.85;12.68;;;14.80;99.90;;;;;;5003591;28;20029;-70
2021/08/18 05:51:00;;;;;;;33.67;13.68;;;14.80;99.90;;;;;;5007565;28;20033;-70
2021/08/18 05:53:26;;;;;;;30.75;12.15;;;14.80;99.90;;;;;;5007362;28;20508;-69
2021/08/18 05:55:53;;;;;;;29.05;12.32;;;14.80;99.90;;;;;;4992180;28;20421;-70
2021/08/18 05:58:19;;;;;;;27.92;11.75;;;14.90;99.90;;;;;;5006902;28;20038;-69
2021/08/18 06:00:44;;;;;;;25.85;10.95;;;15.00;99.90;;;;;;5008551;28;20041;-69
2021/08/18 06:03:11;;;;;;;26.65;10.40;;;15.00;99.90;;;;;;4989821;28;20639;-69
2021/08/18 06:05:37;;;;;;;23.95;10.07;;;15.00;99.90;;;;;;5007391;28;20029;-69
2021/08/18 06:08:06;;;;;;;21.42;9.15;;;15.00;99.90;;;;;;4985310;28;20068;-70
2021/08/18 06:10:33;;;;;;;23.60;10.35;;;15.10;99.90;;;;;;5007341;28;20058;-69
2021/08/18 06:13:01;;;;;;;20.08;8.77;;;15.20;99.90;;;;;;5006681;28;20037;-70
2021/08/18 06:15:31;;;;;;;17.77;8.32;;;15.30;99.90;;;;;;4997419;28;20543;-69
2021/08/18 06:17:57;;;;;;;19.13;8.63;;;15.30;99.90;;;;;;4998600;28;20517;-70
2021/08/18 06:20:23;;;;;;;19.55;8.90;;;15.30;99.90;;;;;;5003787;28;20106;-70
2021/08/18 06:22:50;;;;;;;16.02;7.57;;;15.30;99.90;;;;;;4961175;28;20117;-71
2021/08/18 06:25:16;;;;;;;12.98;5.57;;;15.40;99.90;;;;;;4950330;28;20035;-70
2021/08/18 06:27:42;;;;;;;14.10;6.13;;;15.50;99.90;;;;;;4961089;28;20252;-70
2021/08/18 06:30:09;;;;;;;12.88;5.22;;;15.50;99.90;;;;;;4962873;28;20045;-70
2021/08/18 06:32:36;;;;;;;12.05;5.75;;;15.70;99.90;;;;;;4955979;28;20133;-70
2021/08/18 06:35:02;;;;;;;9.65;4.18;;;15.70;99.90;;;;;;4965300;28;20030;-69
2021/08/18 06:37:27;;;;;;;9.32;3.88;;;15.70;99.90;;;;;;4965335;28;20093;-69
2021/08/18 06:39:53;;;;;;;9.43;3.92;;;15.50;99.90;;;;;;4965580;28;20027;-69
2021/08/18 06:42:20;;;;;;;8.27;4.05;;;15.70;99.90;;;;;;4963613;28;20046;-69
2021/08/18 06:44:49;;;;;;;9.05;3.90;;;15.70;99.90;;;;;;4956911;28;20050;-70
2021/08/18 06:47:16;;;;;;;9.10;3.78;;;15.80;99.90;;;;;;4972326;28;20070;-69
2021/08/18 06:49:41;;;;;;;9.27;3.35;;;15.80;99.90;;;;;;4968618;28;20573;-69
2021/08/18 06:52:07;;;;;;;9.27;3.95;;;15.60;99.90;;;;;;4966520;28;20118;-69
2021/08/18 06:54:33;;;;;;;8.27;3.70;;;15.50;99.90;;;;;;5003025;28;20065;-69
2021/08/18 06:56:58;;;;;;;8.52;2.90;;;15.50;99.90;;;;;;5006792;28;20041;-69
2021/08/18 06:59:24;;;;;;;8.10;2.83;;;15.50;99.90;;;;;;5006443;28;20454;-69
2021/08/18 07:01:50;;;;;;;11.35;3.55;;;15.60;99.90;;;;;;5002917;28;20442;-69
2021/08/18 07:04:16;;;;;;;11.57;3.95;;;15.50;99.90;;;;;;4991754;28;20030;-69
2021/08/18 07:06:41;;;;;;;9.85;3.30;;;15.40;99.90;;;;;;5000991;28;20069;-69
2021/08/18 07:09:07;;;;;;;9.75;3.58;;;15.40;99.90;;;;;;4994005;28;20053;-69
2021/08/18 07:11:33;;;;;;;10.82;4.03;;;15.40;99.90;;;;;;5002079;28;20068;-69
2021/08/18 07:14:00;;;;;;;13.10;3.92;;;15.30;99.90;;;;;;5000647;28;20099;-69
2021/08/18 07:16:27;;;;;;;9.73;3.85;;;15.30;99.90;;;;;;4991297;28;20080;-69
2021/08/18 07:18:53;;;;;;;9.80;4.63;;;15.20;99.90;;;;;;5004855;28;20117;-69
2021/08/18 07:21:20;;;;;;;10.38;4.05;;;15.30;99.90;;;;;;5006457;28;20037;-69
2021/08/18 07:23:47;;;;;;;11.48;3.92;;;15.30;99.90;;;;;;5006916;28;20478;-69
2021/08/18 07:26:13;;;;;;;14.82;4.47;;;15.40;99.90;;;;;;5005335;28;20049;-69
2021/08/18 07:28:38;;;;;;;11.07;4.38;;;15.40;99.90;;;;;;5005673;28;20065;-69
2021/08/18 07:31:04;;;;;;;10.80;4.38;;;15.60;99.90;;;;;;5005018;28;20100;-69
2021/08/18 07:33:30;;;;;;;10.73;4.18;;;15.60;99.90;;;;;;5005791;28;20026;-69
2021/08/18 07:35:55;;;;;;;10.20;4.30;;;15.80;99.90;;;;;;5004761;28;20119;-69
2021/08/18 07:38:21;;;;;;;9.93;4.22;;;16.00;99.90;;;;;;5005917;28;20038;-69
2021/08/18 07:40:47;;;;;;;11.20;3.70;;;16.30;99.90;;;;;;5006108;28;20450;-69
2021/08/18 07:43:13;;;;;;;11.65;4.38;;;16.30;99.90;;;;;;5005002;28;20057;-68
2021/08/18 07:45:38;;;;;;;10.48;4.20;;;16.40;99.90;;;;;;5001136;28;20081;-69
2021/08/18 07:48:05;;;;;;;11.55;3.67;;;16.70;99.90;;;;;;4989423;28;20117;-68
2021/08/18 07:50:30;;;;;;;11.40;4.70;;;17.00;99.90;;;;;;4983537;28;20129;-69
2021/08/18 07:52:56;;;;;;;10.35;4.65;;;17.10;99.90;;;;;;5002848;28;20113;-69
2021/08/18 07:55:22;;;;;;;9.85;4.07;;;17.40;99.90;;;;;;5005323;28;20437;-69
2021/08/18 07:57:47;;;;;;;8.75;4.03;;;17.30;99.90;;;;;;5011210;28;20060;-68
2021/08/18 08:00:13;;;;;;;12.65;5.07;;;16.90;99.90;;;;;;5003781;28;20552;-69
2021/08/18 08:02:46;;;;;;;14.32;4.40;;;17.00;99.90;;;;;;5003218;28;20033;-68
2021/08/18 08:05:13;;;;;;;10.02;3.88;;;17.10;99.90;;;;;;5001405;28;20053;-68
2021/08/18 08:07:39;;;;;;;10.43;5.00;;;16.90;99.90;;;;;;5003339;28;20108;-68
2021/08/18 08:10:06;;;;;;;11.63;5.55;;;17.10;99.90;;;;;;5003947;28;20120;-68
2021/08/18 08:12:33;;;;;;;12.07;4.97;;;17.30;99.90;;;;;;5010216;28;20265;-68
2021/08/18 08:14:59;;;;;;;11.15;5.05;;;17.70;99.90;;;;;;5007245;28;20488;-68
2021/08/18 08:17:25;;;;;;;11.05;5.45;;;17.90;99.90;;;;;;5007309;28;20050;-68
2021/08/18 08:19:50;;;;;;;9.45;4.47;;;17.90;99.90;;;;;;5005643;28;20153;-68
2021/08/18 08:22:17;;;;;;;12.88;5.90;;;17.90;99.90;;;;;;5004343;28;20366;-68
2021/08/18 08:24:42;;;;;;;10.65;4.43;;;17.60;99.90;;;;;;5001215;28;20034;-68
2021/08/18 08:27:08;;;;;;;12.10;5.55;;;17.90;99.90;;;;;;5002534;28;20022;-68
2021/08/18 08:29:34;;;;;;;15.15;6.65;;;17.90;99.90;;;;;;5002726;28;20026;-68
2021/08/18 08:31:59;;;;;;;12.00;6.00;;;18.00;99.90;;;;;;5002816;28;20033;-68
2021/08/18 08:34:25;;;;;;;13.45;6.90;;;17.90;99.90;;;;;;5001154;28;20030;-68
2021/08/18 08:36:50;;;;;;;13.70;5.47;;;18.10;99.90;;;;;;5000929;28;20564;-68
2021/08/18 08:39:16;;;;;;;13.35;6.20;;;18.10;99.90;;;;;;5003867;28;20680;-68
2021/08/18 08:41:43;;;;;;;16.13;6.47;;;18.30;99.90;;;;;;5008122;28;20034;-68
2021/08/18 08:44:16;;;;;;;17.45;6.75;;;18.30;99.90;;;;;;5008027;28;20037;-68
2021/08/18 08:46:42;;;;;;;12.15;5.72;;;18.20;99.90;;;;;;4999104;28;20034;-68
2021/08/18 08:49:08;;;;;;;15.13;6.22;;;18.30;99.90;;;;;;5007686;28;20109;-68
2021/08/18 08:51:34;;;;;;;13.35;5.30;;;18.40;99.90;;;;;;5007864;28;20026;-68
2021/08/18 08:54:00;;;;;;;12.30;5.85;;;18.40;99.90;;;;;;5006678;28;20113;-68
2021/08/18 08:56:25;;;;;;;13.80;6.60;;;18.40;99.90;;;;;;5007522;28;20426;-68
2021/08/18 08:58:51;;;;;;;11.45;4.72;;;18.70;99.90;;;;;;5011278;28;20046;-67
2021/08/18 09:01:17;;;;;;;12.75;6.15;;;18.70;99.90;;;;;;5006792;28;20021;-67
2021/08/18 09:03:45;;;;;;;12.95;5.78;;;19.10;99.90;;;;;;5007859;28;20371;-68
2021/08/18 09:06:11;;;;;;;10.52;5.22;;;19.10;99.90;;;;;;5007683;28;20022;-68
2021/08/18 09:08:52;;;;;;;11.55;4.95;;;19.10;99.90;;;;;;5006741;28;20029;-68
2021/08/18 09:11:20;;;;;;;10.48;5.38;;;19.00;99.90;;;;;;5007124;28;20033;-68
2021/08/18 09:13:54;;;;;;;12.73;6.18;;;19.40;99.90;;;;;;5006197;28;20034;-67
2021/08/18 09:16:29;;;;;;;11.52;4.80;;;19.00;99.90;;;;;;5006581;28;20022;-68
2021/08/18 09:18:54;;;;;;;7.70;3.38;;;19.20;99.90;;;;;;5008208;28;20504;-67
2021/08/18 09:21:27;;;;;;;10.15;4.72;;;19.50;99.90;;;;;;4990305;28;20046;-67
2021/08/18 09:24:15;;;;;;;10.68;4.25;;;20.00;99.90;;;;;;5006206;28;20241;-67
2021/08/18 09:26:46;;;;;;;9.55;5.00;;;19.70;99.90;;;;;;5003209;28;20477;-67
2021/08/18 09:29:12;;;;;;;9.23;4.05;;;19.70;99.90;;;;;;5005008;28;20620;-67
2021/08/18 09:31:38;;;;;;;17.30;5.47;;;19.70;99.90;;;;;;5008911;28;20026;-67
2021/08/18 09:34:12;;;;;;;18.10;6.30;;;19.60;99.90;;;;;;5001852;28;20041;-67
2021/08/18 09:36:38;;;;;;;10.25;4.82;;;19.70;99.90;;;;;;5008278;28;20503;-67
2021/08/18 09:39:20;;;;;;;9.82;4.28;;;19.60;99.90;;;;;;5008302;28;20072;-67
2021/08/18 09:41:46;;;;;;;12.32;4.95;;;19.20;99.90;;;;;;4987036;28;20777;-67
2021/08/18 09:44:12;;;;;;;12.98;5.53;;;19.40;99.90;;;;;;5008099;28;20109;-67
2021/08/18 09:46:37;;;;;;;14.27;5.43;;;19.70;99.90;;;;;;5015713;28;20088;-67
2021/08/18 09:49:10;;;;;;;10.30;5.18;;;20.00;99.90;;;;;;5003663;28;20022;-67
2021/08/18 09:51:37;;;;;;;9.15;4.30;;;20.20;99.90;;;;;;4988764;28;20037;-67
2021/08/18 09:54:17;;;;;;;8.68;3.65;;;20.00;99.90;;;;;;5004321;28;20084;-67
2021/08/18 09:56:45;;;;;;;9.20;3.20;;;19.50;99.90;;;;;;5001605;28;20060;-67
2021/08/18 09:59:11;;;;;;;9.52;4.32;;;19.00;99.90;;;;;;5004722;28;20328;-67
2021/08/18 10:01:39;;;;;;;8.63;3.63;;;19.00;99.90;;;;;;5005790;28;20060;-67
2021/08/18 10:04:05;;;;;;;8.23;3.35;;;18.50;99.90;;;;;;5003445;28;20033;-67
2021/08/18 10:06:31;;;;;;;8.80;4.05;;;18.30;99.90;;;;;;5007026;28;20525;-67
2021/08/18 10:08:57;;;;;;;8.18;3.85;;;18.10;99.90;;;;;;5003913;28;20393;-67
2021/08/18 10:11:27;;;;;;;8.63;4.03;;;18.00;99.90;;;;;;4987543;28;20117;-67
2021/08/18 10:13:53;;;;;;;8.90;4.10;;;18.20;99.90;;;;;;5002982;28;20030;-67
2021/08/18 10:16:19;;;;;;;8.45;4.10;;;18.20;99.90;;;;;;5004179;28;20010;-67
2021/08/18 10:18:47;;;;;;;7.47;2.70;;;18.10;99.90;;;;;;5005453;28;20092;-67
2021/08/18 10:21:22;;;;;;;9.15;4.03;;;17.90;99.90;;;;;;4995599;28;20226;-67
2021/08/18 10:23:58;;;;;;;10.55;4.38;;;17.90;99.90;;;;;;5002527;28;20030;-67
2021/08/18 10:26:36;;;;;;;11.23;3.92;;;17.90;99.90;;;;;;4987444;28;20029;-67
2021/08/18 10:29:30;;;;;;;9.88;4.45;;;17.90;99.90;;;;;;5004165;28;20439;-67
2021/08/18 10:32:09;;;;;;;11.35;4.63;;;17.80;99.90;;;;;;5006510;28;20029;-68
2021/08/18 10:34:37;;;;;;;12.13;5.20;;;17.70;99.90;;;;;;5007055;28;20032;-67
2021/08/18 10:37:16;;;;;;;12.50;5.30;;;17.60;99.90;;;;;;5002284;28;20437;-67
2021/08/18 10:39:54;;;;;;;13.55;5.35;;;17.50;99.90;;;;;;5009446;28;20048;-67
2021/08/18 10:42:33;;;;;;;10.50;5.25;;;17.60;99.90;;;;;;4999787;28;20022;-67
2021/08/18 10:44:59;;;;;;;12.23;6.35;;;17.70;99.90;;;;;;5006161;28;20028;-67
2021/08/18 10:47:34;;;;;;;12.70;6.30;;;17.90;99.90;;;;;;5003960;28;20042;-67
2021/08/18 10:50:12;;;;;;;13.38;6.63;;;18.00;99.90;;;;;;5006897;28;20465;-67
2021/08/18 10:52:37;;;;;;;15.30;6.90;;;18.40;99.90;;;;;;5009150;28;20057;-67
2021/08/18 10:55:12;;;;;;;13.75;6.28;;;18.60;99.90;;;;;;5006670;28;20064;-67
2021/08/18 10:57:57;;;;;;;14.15;6.90;;;18.90;99.90;;;;;;4987113;28;20041;-67
2021/08/18 11:00:42;;;;;;;14.60;6.75;;;18.90;99.90;;;;;;4999837;28;20363;-67
2021/08/18 11:03:10;;;;;;;15.23;7.10;;;19.30;99.90;;;;;;5005904;28;20087;-67
2021/08/18 11:05:38;;;;;;;12.48;6.30;;;19.60;99.90;;;;;;4990574;28;20026;-67
2021/08/18 11:08:23;;;;;;;12.95;6.78;;;19.40;99.90;;;;;;5005905;28;20105;-67
2021/08/18 11:10:53;;;;;;;14.65;6.90;;;19.80;99.90;;;;;;5003638;28;20033;-67
2021/08/18 11:13:38;;;;;;;;;;;20.10;99.90;;;;;;5005662;28;20038;-67
2021/08/18 11:16:17;;;;;;;14.48;7.80;;;20.10;99.90;;;;;;5004939;28;19948;-67
2021/08/18 11:19:07;;;;;;;14.00;7.18;;;20.10;99.90;;;;;;4986460;28;20129;-67
2021/08/18 11:21:40;;;;;;;12.60;6.05;;;20.30;99.90;;;;;;5005801;28;20048;-67
2021/08/18 11:24:07;;;;;;;12.63;6.93;;;20.10;99.90;;;;;;5005564;28;20251;-67
2021/08/18 11:26:34;;;;;;;14.25;7.30;;;20.10;99.90;;;;;;5001164;28;20026;-68
2021/08/18 11:29:05;;;;;;;15.73;7.55;;;19.80;99.90;;;;;;5005468;28;20378;-67
2021/08/18 11:31:45;;;;;;;15.70;7.25;;;19.90;99.90;;;;;;5007337;28;20085;-67
2021/08/18 11:34:40;;;;;;;11.85;6.60;;;20.00;99.90;;;;;;5000548;28;20030;-67
2021/08/18 11:37:12;;;;;;;13.32;7.03;;;19.80;99.90;;;;;;4985526;28;20088;-67
2021/08/18 11:39:40;;;;;;;11.82;5.65;;;19.70;99.90;;;;;;5000135;28;20041;-67
2021/08/18 11:42:13;;;;;;;11.43;6.15;;;19.70;99.90;;;;;;5001502;28;20029;-67
2021/08/18 11:44:39;;;;;;;12.32;6.05;;;19.70;99.90;;;;;;4999993;28;20041;-68
2021/08/18 11:47:08;;;;;;;13.93;6.10;;;19.70;99.90;;;;;;5005691;28;20022;-67
2021/08/18 11:49:34;;;;;;;11.57;5.82;;;19.70;99.90;;;;;;5004290;28;20026;-67
2021/08/18 11:52:01;;;;;;;10.27;5.50;;;20.10;99.90;;;;;;5004364;28;20477;-67
2021/08/18 11:54:27;;;;;;;10.32;5.47;;;20.50;99.90;;;;;;5000393;28;20116;-67
2021/08/18 11:57:02;;;;;;;9.13;4.75;;;20.00;99.90;;;;;;5006236;28;20080;-67
2021/08/18 11:59:28;;;;;;;10.32;4.15;;;20.10;99.90;;;;;;5001659;28;20042;-67
2021/08/18 12:01:55;;;;;;;10.82;4.68;;;20.40;99.90;;;;;;5005651;28;20049;-68
2021/08/18 12:04:22;;;;;;;8.18;3.33;;;20.90;99.90;;;;;;4987069;28;20030;-67
2021/08/18 12:07:08;;;;;;;7.93;3.17;;;20.70;99.90;;;;;;5005107;28;20025;-67
2021/08/18 12:09:34;;;;;;;8.25;3.30;;;20.60;99.90;;;;;;5005494;28;20482;-67
2021/08/18 12:12:19;;;;;;;7.85;2.78;;;20.70;99.90;;;;;;4990505;28;20109;-67
2021/08/18 12:14:46;;;;;;;7.32;3.17;;;21.10;99.90;;;;;;5002551;28;20014;-67
2021/08/18 12:17:12;;;;;;;6.70;2.90;;;21.20;99.90;;;;;;5000367;28;20021;-67
2021/08/18 12:19:46;;;;;;;6.57;2.70;;;21.30;99.90;;;;;;5004454;28;20140;-67
2021/08/18 12:22:17;;;;;;;7.00;2.65;;;21.30;99.90;;;;;;5006931;28;20137;-67
2021/08/18 12:25:06;;;;;;;5.70;2.42;;;21.10;99.90;;;;;;5003994;28;20037;-67
2021/08/18 12:27:32;;;;;;;7.60;3.20;;;21.10;99.90;;;;;;4998200;28;20091;-67
2021/08/18 12:30:03;;;;;;;7.13;3.10;;;21.00;99.90;;;;;;5004697;28;20069;-67
2021/08/18 12:32:29;;;;;;;6.75;2.85;;;20.90;99.90;;;;;;5005350;28;20038;-67
2021/08/18 12:35:12;;;;;;;6.97;3.17;;;21.10;99.90;;;;;;5004064;28;20026;-67
2021/08/18 12:37:40;;;;;;;6.65;2.80;;;21.20;99.90;;;;;;5003643;28;20108;-67